Time;durP1;ratioP1;P1;durP2;ratioP2;P2;SDS_P1;SDS_P2;PMS_P1;PMS_P2;Temp;Humidity;BMP_temperature;BMP_pressure;BME280_temperature;BME280_humidity;BME280_pressure;Samples;Min_cycle;Max_cycle;Signal;HPM_P1;HPM_P2
2022/12/03 00:01:41;;;;;;;33.70;16.40;;;2.60;99.90;;;;;;5017676;28;20037;-91
2022/12/03 00:04:06;;;;;;;35.58;16.83;;;2.60;99.90;;;;;;5008993;28;20062;-91
2022/12/03 00:06:32;;;;;;;36.38;15.77;;;2.60;99.90;;;;;;5016912;28;20045;-92
2022/12/03 00:08:57;;;;;;;35.88;16.25;;;2.60;99.90;;;;;;5006167;28;20084;-92
2022/12/03 00:11:23;;;;;;;37.10;15.98;;;2.60;99.90;;;;;;5005775;28;20109;-92
2022/12/03 00:13:48;;;;;;;33.20;15.43;;;2.60;99.90;;;;;;5030954;28;20053;-92
2022/12/03 00:16:14;;;;;;;37.58;16.88;;;2.60;99.90;;;;;;5016047;28;20116;-92
2022/12/03 00:18:41;;;;;;;32.08;14.68;;;2.60;99.90;;;;;;5016843;28;20014;-92
2022/12/03 00:21:06;;;;;;;32.75;16.05;;;2.60;99.90;;;;;;5017770;28;20026;-92
2022/12/03 00:23:32;;;;;;;32.13;15.25;;;2.60;99.90;;;;;;5017469;28;20030;-91
2022/12/03 00:25:57;;;;;;;36.38;16.60;;;2.60;99.90;;;;;;5017649;28;20053;-92
2022/12/03 00:28:23;;;;;;;37.15;16.20;;;2.60;99.90;;;;;;5018646;28;20033;-91
2022/12/03 00:30:48;;;;;;;35.05;16.35;;;2.60;99.90;;;;;;5028881;28;20033;-91
2022/12/03 00:33:14;;;;;;;36.97;16.35;;;2.60;99.90;;;;;;5017936;28;20029;-92
2022/12/03 00:35:39;;;;;;;33.70;15.70;;;2.60;99.90;;;;;;5016634;28;20029;-92
2022/12/03 00:38:05;;;;;;;36.13;16.40;;;2.60;99.90;;;;;;5018467;28;20025;-92
2022/12/03 00:40:30;;;;;;;35.40;16.20;;;2.60;99.90;;;;;;5017672;28;20121;-93
2022/12/03 00:42:56;;;;;;;36.20;16.63;;;2.60;99.90;;;;;;5017170;28;20056;-92
2022/12/03 00:45:21;;;;;;;35.40;16.77;;;2.60;99.90;;;;;;5018267;28;20106;-92
2022/12/03 00:47:47;;;;;;;36.78;17.00;;;2.60;99.90;;;;;;5018724;28;20077;-92
2022/12/03 00:50:12;;;;;;;38.55;17.52;;;2.60;99.90;;;;;;5018853;28;20037;-91
2022/12/03 00:52:38;;;;;;;37.30;18.85;;;2.60;99.90;;;;;;5033404;28;20036;-93
2022/12/03 00:55:04;;;;;;;41.28;18.98;;;2.60;99.90;;;;;;5016955;28;20030;-92
2022/12/03 00:57:29;;;;;;;39.10;18.73;;;2.60;99.90;;;;;;5017110;28;20384;-92
2022/12/03 00:59:55;;;;;;;34.85;16.35;;;2.60;99.90;;;;;;5018690;28;20038;-93
2022/12/03 01:02:20;;;;;;;36.75;17.17;;;2.60;99.90;;;;;;5020929;28;20037;-92
2022/12/03 01:04:46;;;;;;;35.90;17.50;;;2.60;99.90;;;;;;5018421;28;20044;-93
2022/12/03 01:07:11;;;;;;;37.33;17.17;;;2.60;99.90;;;;;;5030395;28;20041;-93
2022/12/03 01:09:37;;;;;;;43.35;19.10;;;2.60;99.90;;;;;;5015637;28;20022;-91
2022/12/03 01:12:02;;;;;;;40.00;16.75;;;2.60;99.90;;;;;;5032950;28;20045;-91
2022/12/03 01:14:28;;;;;;;38.33;17.33;;;2.60;99.90;;;;;;5016797;28;20022;-93
2022/12/03 01:16:53;;;;;;;41.55;18.17;;;2.60;99.90;;;;;;5020181;28;20033;-90
2022/12/03 01:19:19;;;;;;;37.58;17.83;;;2.60;99.90;;;;;;5022824;28;20475;-90
2022/12/03 01:21:47;;;;;;;39.58;17.88;;;2.60;99.90;;;;;;5024456;28;20033;-92
2022/12/03 01:24:13;;;;;;;34.33;17.08;;;2.60;99.90;;;;;;5016787;28;20022;-94
2022/12/03 01:26:39;;;;;;;39.47;18.23;;;2.60;99.90;;;;;;5017092;28;20041;-92
2022/12/03 01:29:05;;;;;;;37.78;18.17;;;2.60;99.90;;;;;;5016726;28;20030;-91
2022/12/03 01:34:14;;;;;;;41.42;18.80;;;2.60;99.90;;;;;;5012340;28;20549;-93
2022/12/03 01:36:40;;;;;;;32.80;15.73;;;2.60;99.90;;;;;;5013451;28;20022;-91
2022/12/03 01:39:06;;;;;;;38.72;19.63;;;2.60;99.90;;;;;;5016841;28;20033;-91
2022/12/03 01:41:34;;;;;;;45.10;19.17;;;2.60;99.90;;;;;;5016487;28;20472;-91
2022/12/03 01:44:01;;;;;;;39.80;19.20;;;2.60;99.90;;;;;;5016174;28;20422;-92
2022/12/03 01:46:38;;;;;;;40.42;18.60;;;2.60;99.90;;;;;;5033615;28;20050;-92
2022/12/03 01:49:04;;;;;;;38.40;18.77;;;2.70;99.90;;;;;;5007258;28;20459;-92
2022/12/03 01:51:30;;;;;;;37.78;15.80;;;2.60;99.90;;;;;;5002417;28;20022;-91
2022/12/03 01:53:57;;;;;;;41.13;19.33;;;2.60;99.90;;;;;;5002866;28;20053;-90
2022/12/03 01:56:22;;;;;;;41.92;18.27;;;2.70;99.90;;;;;;5015843;28;20030;-90
2022/12/03 01:58:48;;;;;;;39.92;18.83;;;2.60;99.90;;;;;;5016974;28;20079;-90
2022/12/03 02:01:16;;;;;;;41.53;18.63;;;2.70;99.90;;;;;;5015696;28;20042;-91
2022/12/03 02:03:43;;;;;;;37.35;17.02;;;2.70;99.90;;;;;;5015978;28;20140;-90
2022/12/03 02:06:16;;;;;;;40.55;17.85;;;2.70;99.90;;;;;;5026528;28;20109;-90
2022/12/03 02:08:41;;;;;;;41.60;19.55;;;2.70;99.90;;;;;;5025801;28;20029;-91
2022/12/03 02:11:29;;;;;;;36.38;17.38;;;2.60;99.90;;;;;;5030698;28;20048;-90
2022/12/03 02:14:01;;;;;;;38.03;18.33;;;2.70;99.90;;;;;;5015056;28;20033;-91
2022/12/03 02:16:29;;;;;;;40.35;18.58;;;2.70;99.90;;;;;;5014500;28;20026;-90
2022/12/03 02:18:55;;;;;;;43.05;18.88;;;2.60;99.90;;;;;;5019673;28;20129;-90
2022/12/03 02:21:47;;;;;;;43.58;19.80;;;2.60;99.90;;;;;;5013453;28;20029;-91
2022/12/03 02:24:27;;;;;;;35.92;17.05;;;2.70;99.90;;;;;;5016175;28;20071;-91
2022/12/03 02:26:52;;;;;;;38.70;18.20;;;2.70;99.90;;;;;;5003342;28;20042;-91
2022/12/03 02:29:18;;;;;;;43.80;19.95;;;2.60;99.90;;;;;;5016402;28;20040;-91
2022/12/03 02:31:43;;;;;;;41.28;19.10;;;2.60;99.90;;;;;;5015356;28;20018;-90
2022/12/03 02:34:10;;;;;;;44.17;19.00;;;2.60;99.90;;;;;;5010840;28;20025;-90
2022/12/03 02:36:37;;;;;;;43.72;19.35;;;2.60;99.90;;;;;;5009746;28;20026;-91
2022/12/03 02:39:03;;;;;;;43.25;19.02;;;2.60;99.90;;;;;;5004603;28;20361;-91
2022/12/03 02:44:13;;;;;;;43.65;19.85;;;2.70;99.90;;;;;;5016458;28;20554;-91
2022/12/03 02:46:39;;;;;;;40.95;19.77;;;2.70;99.90;;;;;;5016085;28;20050;-90
2022/12/03 02:49:05;;;;;;;34.95;16.40;;;2.60;99.90;;;;;;5015121;28;20029;-90
2022/12/03 02:51:33;;;;;;;41.90;19.23;;;2.70;99.90;;;;;;5013745;28;20117;-91
2022/12/03 02:53:59;;;;;;;45.05;19.88;;;2.70;99.90;;;;;;5014707;28;20022;-91
2022/12/03 02:56:28;;;;;;;47.40;20.33;;;2.70;99.90;;;;;;5032008;28;20475;-90
2022/12/03 02:58:58;;;;;;;41.65;18.70;;;2.70;99.90;;;;;;5014844;28;20022;-91
2022/12/03 03:01:24;;;;;;;45.10;20.92;;;2.70;99.90;;;;;;5012636;28;20053;-89
2022/12/03 03:03:51;;;;;;;45.17;20.30;;;2.70;99.90;;;;;;5010551;28;20544;-90
2022/12/03 03:06:18;;;;;;;42.90;20.25;;;2.70;99.90;;;;;;5013902;28;20479;-90
2022/12/03 03:08:44;;;;;;;37.90;16.80;;;2.70;99.90;;;;;;5011812;28;20472;-90
2022/12/03 03:11:10;;;;;;;45.67;21.88;;;2.70;99.90;;;;;;5010623;28;20112;-89
2022/12/03 03:13:36;;;;;;;43.25;18.23;;;2.70;99.90;;;;;;5011072;28;20066;-90
2022/12/03 03:16:03;;;;;;;43.33;20.60;;;2.60;99.90;;;;;;5012230;28;20053;-94
2022/12/03 03:18:29;;;;;;;50.22;22.00;;;2.70;99.90;;;;;;5001336;28;20030;-90
2022/12/03 03:20:55;;;;;;;41.35;19.70;;;2.60;99.90;;;;;;5013599;28;20022;-91
2022/12/03 03:23:22;;;;;;;41.35;20.15;;;2.70;99.90;;;;;;5010589;28;20018;-90
2022/12/03 03:26:00;;;;;;;45.58;20.88;;;2.70;99.90;;;;;;5015010;28;20026;-91
2022/12/03 03:28:27;;;;;;;38.72;17.73;;;2.70;99.90;;;;;;5005478;28;20038;-91
2022/12/03 03:30:54;;;;;;;42.45;19.70;;;2.70;99.90;;;;;;5017003;28;20061;-91
2022/12/03 03:33:20;;;;;;;39.10;18.50;;;2.70;99.90;;;;;;5011752;28;20030;-90
2022/12/03 03:35:47;;;;;;;39.25;19.35;;;2.70;99.90;;;;;;5011607;28;20026;-89
2022/12/03 03:38:15;;;;;;;44.97;21.15;;;2.70;99.90;;;;;;5014749;28;20495;-90
2022/12/03 03:40:41;;;;;;;38.58;17.88;;;2.70;99.90;;;;;;5015492;28;20030;-92
2022/12/03 03:43:06;;;;;;;43.05;20.00;;;2.60;99.90;;;;;;5019819;28;20026;-91
2022/12/03 03:45:32;;;;;;;37.55;17.40;;;2.70;99.90;;;;;;5014194;28;20550;-91
2022/12/03 03:47:59;;;;;;;44.83;20.50;;;2.60;99.90;;;;;;5013698;28;20034;-90
2022/12/03 03:50:27;;;;;;;39.80;18.70;;;2.60;99.90;;;;;;5025890;28;20026;-90
2022/12/03 03:52:53;;;;;;;40.42;19.10;;;2.70;99.90;;;;;;5015547;28;20488;-90
2022/12/03 03:55:19;;;;;;;34.58;16.40;;;2.60;99.90;;;;;;5018430;28;20113;-90
2022/12/03 03:57:45;;;;;;;31.98;15.82;;;2.60;99.90;;;;;;5022346;28;20057;-91
2022/12/03 04:00:11;;;;;;;38.10;18.27;;;2.60;99.90;;;;;;5016161;28;20029;-91
2022/12/03 04:02:37;;;;;;;38.15;18.50;;;2.60;99.90;;;;;;5018279;28;20093;-90
2022/12/03 04:05:03;;;;;;;38.65;19.25;;;2.60;99.90;;;;;;5018152;28;20108;-91
2022/12/03 04:07:29;;;;;;;37.00;18.35;;;2.60;99.90;;;;;;5018512;28;20057;-91
2022/12/03 04:09:54;;;;;;;35.67;16.30;;;2.60;99.90;;;;;;5024787;28;20030;-90
2022/12/03 04:15:05;;;;;;;35.83;17.65;;;2.60;99.90;;;;;;5020284;28;20109;-90
2022/12/03 04:17:30;;;;;;;36.22;17.27;;;2.60;99.90;;;;;;5016718;28;20033;-91
2022/12/03 04:19:56;;;;;;;39.03;18.92;;;2.60;99.90;;;;;;5007804;28;20108;-91
2022/12/03 04:22:39;;;;;;;42.58;19.35;;;2.60;99.90;;;;;;5021789;28;20032;-91
2022/12/03 04:30:35;;;;;;;37.70;17.90;;;2.50;99.90;;;;;;5019413;28;20052;-90
2022/12/03 04:35:45;;;;;;;36.65;17.05;;;2.50;99.90;;;;;;5016095;28;20040;-91
2022/12/03 04:38:14;;;;;;;37.47;18.23;;;2.50;99.90;;;;;;5016679;28;20428;-90
2022/12/03 04:40:59;;;;;;;40.42;18.40;;;2.50;99.90;;;;;;5017206;28;20033;-90
2022/12/03 04:43:29;;;;;;;32.22;16.23;;;2.50;99.90;;;;;;5008169;28;20073;-90
2022/12/03 04:45:55;;;;;;;37.65;18.58;;;2.50;99.90;;;;;;5006171;28;20042;-90
2022/12/03 04:48:20;;;;;;;35.38;17.02;;;2.50;99.90;;;;;;5011696;28;20044;-91
2022/12/03 04:50:46;;;;;;;34.65;15.35;;;2.50;99.90;;;;;;5017665;28;20104;-91
2022/12/03 04:53:11;;;;;;;43.67;20.48;;;2.50;99.90;;;;;;5012560;28;21085;-91
2022/12/03 04:55:42;;;;;;;41.20;18.77;;;2.40;99.90;;;;;;5019711;28;20037;-90
2022/12/03 04:58:23;;;;;;;31.38;15.90;;;2.40;99.90;;;;;;5018352;28;20026;-92
2022/12/03 05:00:48;;;;;;;36.10;17.05;;;2.50;99.90;;;;;;5019704;28;20077;-93
2022/12/03 05:03:14;;;;;;;40.55;18.50;;;2.40;99.90;;;;;;5016674;28;20487;-93
2022/12/03 05:05:40;;;;;;;38.15;18.50;;;2.40;99.90;;;;;;5015201;28;20022;-91
2022/12/03 05:08:05;;;;;;;41.45;19.20;;;2.40;99.90;;;;;;5014172;28;20281;-91
2022/12/03 05:10:31;;;;;;;38.83;17.42;;;2.40;99.90;;;;;;5013738;28;20080;-91
2022/12/03 05:12:56;;;;;;;39.65;17.60;;;2.40;99.90;;;;;;5008255;28;20026;-90
2022/12/03 05:15:22;;;;;;;41.03;19.60;;;2.40;99.90;;;;;;5015262;28;20088;-91
2022/12/03 05:17:47;;;;;;;43.33;18.60;;;2.40;99.90;;;;;;5015670;28;20038;-91
2022/12/03 05:20:55;;;;;;;39.60;18.10;;;2.40;99.90;;;;;;5017828;28;20040;-92
2022/12/03 05:23:13;;;;;;;41.25;17.98;;;2.40;99.90;;;;;;5013272;28;20032;-91
2022/12/03 05:25:40;;;;;;;40.53;17.98;;;2.40;99.90;;;;;;5012196;28;20514;-92
2022/12/03 05:28:06;;;;;;;37.60;18.10;;;2.30;99.90;;;;;;5018222;28;20030;-92
2022/12/03 05:30:32;;;;;;;41.28;18.63;;;2.30;99.90;;;;;;5016802;28;20554;-92
2022/12/03 05:32:58;;;;;;;41.30;18.55;;;2.30;99.90;;;;;;5016728;28;20029;-91
2022/12/03 05:35:23;;;;;;;39.65;19.27;;;2.30;99.90;;;;;;5016508;28;20076;-91
2022/12/03 05:37:49;;;;;;;41.55;17.98;;;2.30;99.90;;;;;;5026490;28;20065;-91
2022/12/03 05:40:16;;;;;;;45.15;20.08;;;2.30;99.90;;;;;;5017358;28;20026;-91
2022/12/03 05:42:55;;;;;;;44.88;18.95;;;2.30;99.90;;;;;;5027964;28;20030;-92
2022/12/03 05:45:28;;;;;;;42.13;18.52;;;2.30;99.90;;;;;;5027680;28;20026;-91
2022/12/03 05:47:55;;;;;;;43.22;19.83;;;2.30;99.90;;;;;;5017377;28;20100;-91
2022/12/03 05:50:22;;;;;;;42.55;19.83;;;2.30;99.90;;;;;;5014302;28;20030;-91
2022/12/03 05:52:48;;;;;;;44.00;19.75;;;2.30;99.90;;;;;;5016267;28;20048;-91
2022/12/03 05:55:14;;;;;;;42.45;19.40;;;2.30;99.90;;;;;;5016678;28;20026;-92
2022/12/03 05:57:40;;;;;;;44.67;19.58;;;2.30;99.90;;;;;;5015677;28;20026;-90
2022/12/03 06:00:10;;;;;;;40.75;19.13;;;2.30;99.90;;;;;;5014493;28;20092;-90
2022/12/03 06:02:35;;;;;;;42.08;18.85;;;2.30;99.90;;;;;;5019952;28;20072;-90
2022/12/03 06:05:01;;;;;;;43.58;20.38;;;2.30;99.90;;;;;;5016185;28;20030;-91
2022/12/03 06:07:26;;;;;;;40.85;18.58;;;2.30;99.90;;;;;;5015922;28;20037;-90
2022/12/03 06:09:52;;;;;;;47.40;19.90;;;2.30;99.90;;;;;;5012537;28;20484;-92
2022/12/03 06:12:17;;;;;;;39.85;18.50;;;2.30;99.90;;;;;;5016216;28;20044;-92
2022/12/03 06:14:43;;;;;;;37.60;18.23;;;2.30;99.90;;;;;;5008461;28;20094;-91
2022/12/03 06:17:08;;;;;;;40.03;18.33;;;2.30;99.90;;;;;;5026882;28;20124;-91
2022/12/03 06:19:34;;;;;;;46.17;20.85;;;2.30;99.90;;;;;;5022553;28;20575;-91
2022/12/03 06:21:59;;;;;;;48.50;21.58;;;2.30;99.90;;;;;;5026191;28;20046;-91
2022/12/03 06:24:25;;;;;;;37.80;17.92;;;2.30;99.90;;;;;;5005929;28;20054;-92
2022/12/03 06:26:50;;;;;;;50.30;21.75;;;2.30;99.90;;;;;;5016166;28;20084;-90
2022/12/03 06:29:16;;;;;;;37.22;16.75;;;2.30;99.90;;;;;;5015967;28;20033;-90
2022/12/03 06:31:41;;;;;;;43.13;20.38;;;2.30;99.90;;;;;;5013715;28;20030;-93
2022/12/03 06:34:07;;;;;;;43.63;20.45;;;2.30;99.90;;;;;;5013187;28;20075;-91
2022/12/03 06:36:32;;;;;;;43.17;20.25;;;2.20;99.90;;;;;;5012336;28;20030;-92
2022/12/03 06:38:58;;;;;;;39.95;18.77;;;2.20;99.90;;;;;;5008932;28;20129;-92
2022/12/03 06:41:24;;;;;;;39.50;17.80;;;2.20;99.90;;;;;;5013360;28;20034;-92
2022/12/03 06:43:49;;;;;;;39.33;17.73;;;2.20;99.90;;;;;;5013932;28;20057;-92
2022/12/03 06:46:15;;;;;;;40.97;17.13;;;2.20;99.90;;;;;;5016904;28;20411;-90
2022/12/03 06:48:40;;;;;;;46.40;20.42;;;2.20;99.90;;;;;;5011505;28;20480;-92
2022/12/03 06:51:06;;;;;;;42.28;17.45;;;2.20;99.90;;;;;;5016293;28;20037;-92
2022/12/03 06:53:31;;;;;;;39.33;18.13;;;2.20;99.90;;;;;;5013620;28;20049;-91
2022/12/03 06:55:57;;;;;;;46.47;19.05;;;2.30;99.90;;;;;;5011187;28;20035;-92
2022/12/03 06:58:22;;;;;;;41.60;18.08;;;2.40;99.90;;;;;;5012211;28;20033;-91
2022/12/03 07:00:48;;;;;;;43.88;16.80;;;2.40;99.90;;;;;;5012630;28;20033;-91
2022/12/03 07:03:13;;;;;;;42.50;17.55;;;2.50;99.90;;;;;;5012974;28;20025;-91
2022/12/03 07:05:39;;;;;;;45.47;18.40;;;2.50;99.90;;;;;;5015673;28;20030;-91
2022/12/03 07:08:05;;;;;;;40.00;18.25;;;2.60;99.90;;;;;;5013677;28;20108;-89
2022/12/03 07:10:30;;;;;;;42.38;18.30;;;2.60;99.90;;;;;;5011818;28;20121;-91
2022/12/03 07:12:56;;;;;;;42.45;18.95;;;2.60;99.90;;;;;;5025987;28;20506;-90
2022/12/03 07:15:22;;;;;;;38.70;18.00;;;2.60;99.90;;;;;;5008513;28;20468;-91
2022/12/03 07:17:47;;;;;;;40.55;18.63;;;2.50;99.90;;;;;;5012233;28;20102;-90
2022/12/03 07:20:13;;;;;;;40.10;16.60;;;2.50;99.90;;;;;;5022606;28;22152;-91
2022/12/03 07:22:38;;;;;;;40.17;17.90;;;2.50;99.90;;;;;;5013087;28;20037;-90
2022/12/03 07:25:05;;;;;;;45.08;18.60;;;2.50;99.90;;;;;;5010795;28;20030;-90
2022/12/03 07:27:30;;;;;;;43.85;18.52;;;2.40;99.90;;;;;;5016675;28;20057;-89
2022/12/03 07:29:55;;;;;;;45.85;18.75;;;2.40;99.90;;;;;;5003068;28;20034;-90
2022/12/03 07:32:21;;;;;;;42.13;18.58;;;2.40;99.90;;;;;;5010447;28;20040;-90
2022/12/03 07:34:46;;;;;;;46.15;20.77;;;2.40;99.90;;;;;;5014382;28;20030;-90
2022/12/03 07:37:12;;;;;;;40.83;19.20;;;2.40;99.90;;;;;;5008872;28;20030;-91
2022/12/03 07:39:37;;;;;;;44.47;19.92;;;2.30;99.90;;;;;;4996506;28;20041;-91
2022/12/03 07:42:03;;;;;;;51.90;20.42;;;2.30;99.90;;;;;;5009899;28;20026;-91
2022/12/03 07:44:30;;;;;;;50.25;19.83;;;2.30;99.90;;;;;;5002656;28;20026;-91
2022/12/03 07:46:56;;;;;;;37.58;16.63;;;2.30;99.90;;;;;;5012885;28;20174;-89
2022/12/03 07:49:22;;;;;;;46.72;18.33;;;2.30;99.90;;;;;;5012094;28;20051;-90
2022/12/03 07:51:53;;;;;;;46.78;19.58;;;2.30;99.90;;;;;;5016073;28;20030;-90
2022/12/03 07:54:19;;;;;;;36.55;15.25;;;2.30;99.90;;;;;;5011728;28;20041;-90
2022/12/03 07:56:46;;;;;;;43.70;18.77;;;2.30;99.90;;;;;;5014019;28;20022;-91
2022/12/03 07:59:12;;;;;;;43.10;18.15;;;2.30;99.90;;;;;;5010852;28;20033;-90
2022/12/03 08:01:38;;;;;;;43.60;18.65;;;2.30;99.90;;;;;;5008215;28;20038;-91
2022/12/03 08:04:04;;;;;;;44.78;19.25;;;2.30;99.90;;;;;;5012072;28;20018;-90
2022/12/03 08:06:29;;;;;;;49.60;19.83;;;2.30;99.90;;;;;;5001553;28;20085;-91
2022/12/03 08:08:55;;;;;;;39.60;17.80;;;2.20;99.90;;;;;;4998122;28;20033;-92
2022/12/03 08:11:20;;;;;;;43.78;18.38;;;2.30;99.90;;;;;;5028398;28;20034;-91
2022/12/03 08:13:46;;;;;;;43.03;17.90;;;2.30;99.90;;;;;;5014604;28;20026;-92
2022/12/03 08:16:20;;;;;;;50.33;19.15;;;2.30;99.90;;;;;;5014329;28;20037;-92
2022/12/03 08:18:47;;;;;;;45.00;18.90;;;2.20;99.90;;;;;;5014171;28;20030;-91
2022/12/03 08:21:15;;;;;;;50.17;21.90;;;2.20;99.90;;;;;;5021307;28;20010;-90
2022/12/03 08:23:41;;;;;;;51.70;21.02;;;2.20;99.90;;;;;;5026543;28;20072;-91
2022/12/03 08:26:26;;;;;;;55.60;21.73;;;2.20;99.90;;;;;;5026145;28;20033;-90
2022/12/03 08:28:53;;;;;;;60.95;23.25;;;2.10;99.90;;;;;;5012596;28;20054;-91
2022/12/03 08:31:22;;;;;;;65.65;23.08;;;2.10;99.90;;;;;;5011371;28;20033;-92
2022/12/03 08:33:54;;;;;;;69.78;23.73;;;2.10;99.90;;;;;;5009257;28;20029;-91
2022/12/03 08:36:29;;;;;;;58.35;23.38;;;2.10;99.90;;;;;;5017343;28;20033;-90
2022/12/03 08:39:16;;;;;;;61.75;22.83;;;2.20;99.90;;;;;;5007329;28;20186;-92
2022/12/03 08:44:36;;;;;;;60.55;24.17;;;2.20;99.90;;;;;;5019557;28;20040;-92
2022/12/03 08:47:11;;;;;;;70.38;24.48;;;2.20;99.90;;;;;;5010181;28;20061;-91
2022/12/03 08:49:37;;;;;;;70.65;24.30;;;2.20;99.90;;;;;;5015958;28;20064;-91
2022/12/03 08:52:17;;;;;;;61.67;24.42;;;2.20;99.90;;;;;;5017567;28;20034;-91
2022/12/03 08:54:55;;;;;;;66.38;25.02;;;2.20;99.90;;;;;;5018074;28;20022;-91
2022/12/03 08:57:30;;;;;;;62.55;23.38;;;2.20;99.90;;;;;;5015994;28;20025;-92
2022/12/03 09:00:01;;;;;;;62.47;22.30;;;2.20;99.90;;;;;;5018465;28;20476;-91
2022/12/03 09:02:32;;;;;;;61.58;22.42;;;2.20;99.90;;;;;;5019098;28;20396;-90
2022/12/03 09:05:04;;;;;;;59.90;22.60;;;2.20;99.90;;;;;;5016943;28;20076;-91
2022/12/03 09:07:30;;;;;;;61.17;21.40;;;2.20;99.90;;;;;;5021469;28;20038;-91
2022/12/03 09:09:55;;;;;;;64.80;22.77;;;2.20;99.90;;;;;;5016060;28;20511;-92
2022/12/03 09:12:21;;;;;;;63.10;23.75;;;2.20;99.90;;;;;;5018295;28;20164;-90
2022/12/03 09:14:46;;;;;;;59.83;20.98;;;2.30;99.90;;;;;;5016865;28;20026;-90
2022/12/03 09:17:12;;;;;;;57.13;20.77;;;2.20;99.90;;;;;;5035232;28;20032;-91
2022/12/03 09:19:43;;;;;;;61.05;22.20;;;2.30;99.90;;;;;;5016633;28;20026;-91
2022/12/03 09:22:09;;;;;;;62.10;23.23;;;2.30;99.90;;;;;;5013714;28;20546;-91
2022/12/03 09:24:35;;;;;;;62.38;22.65;;;2.30;99.90;;;;;;5020567;28;20083;-91
2022/12/03 09:27:00;;;;;;;55.92;20.13;;;2.40;99.90;;;;;;5020848;28;20040;-91
2022/12/03 09:29:26;;;;;;;58.28;23.92;;;2.40;99.90;;;;;;5020986;28;20468;-90
2022/12/03 09:31:52;;;;;;;66.97;23.08;;;2.40;99.90;;;;;;5029780;28;20415;-91
2022/12/03 09:34:18;;;;;;;66.15;23.42;;;2.40;99.90;;;;;;5018583;28;20022;-91
2022/12/03 09:36:43;;;;;;;59.90;21.98;;;2.40;99.90;;;;;;5018132;28;20476;-92
2022/12/03 09:39:09;;;;;;;54.00;20.35;;;2.40;99.90;;;;;;5018512;28;20121;-93
2022/12/03 09:41:55;;;;;;;62.08;22.58;;;2.40;99.90;;;;;;5019146;28;20084;-93
2022/12/03 09:44:21;;;;;;;58.45;21.88;;;2.40;99.90;;;;;;5017275;28;20133;-91
2022/12/03 09:47:01;;;;;;;54.10;20.63;;;2.30;99.90;;;;;;5017708;28;20109;-92
2022/12/03 09:49:29;;;;;;;56.92;20.45;;;2.30;99.90;;;;;;5012150;28;20542;-92
2022/12/03 09:51:56;;;;;;;55.40;18.10;;;2.30;99.90;;;;;;5015411;28;20093;-92
2022/12/03 09:54:25;;;;;;;49.83;19.02;;;2.30;99.90;;;;;;5018488;28;20048;-92
2022/12/03 09:56:53;;;;;;;41.67;14.85;;;2.30;99.90;;;;;;5018506;28;20090;-92
2022/12/03 09:59:30;;;;;;;57.17;19.52;;;2.30;99.90;;;;;;5019452;28;20049;-92
2022/12/03 10:01:56;;;;;;;41.47;15.65;;;2.20;99.90;;;;;;5027345;28;20065;-92
2022/12/03 10:04:23;;;;;;;51.17;19.35;;;2.20;99.90;;;;;;5015256;28;20037;-91
2022/12/03 10:06:49;;;;;;;48.80;17.35;;;2.20;99.90;;;;;;5012088;28;20038;-91
2022/12/03 10:09:22;;;;;;;51.63;17.63;;;2.20;99.90;;;;;;5031477;28;20077;-93
2022/12/03 10:11:48;;;;;;;52.70;19.50;;;2.20;99.90;;;;;;5016213;28;20452;-91
2022/12/03 10:14:16;;;;;;;52.00;18.45;;;2.20;99.90;;;;;;5016412;28;20117;-92
2022/12/03 10:16:42;;;;;;;50.80;17.17;;;2.20;99.90;;;;;;5017162;28;20025;-92
2022/12/03 10:19:30;;;;;;;54.92;20.13;;;2.20;99.90;;;;;;5017576;28;20033;-92
2022/12/03 10:21:56;;;;;;;52.60;18.10;;;2.30;99.90;;;;;;5009157;28;20435;-93
2022/12/03 10:24:33;;;;;;;55.30;19.60;;;2.30;99.90;;;;;;5017381;28;20105;-93
2022/12/03 10:27:23;;;;;;;53.20;17.80;;;2.30;99.90;;;;;;5018605;28;20033;-94
2022/12/03 10:29:57;;;;;;;51.05;18.40;;;2.30;99.90;;;;;;5011513;28;20041;-93
2022/12/03 10:32:38;;;;;;;55.03;20.80;;;2.30;99.90;;;;;;5021846;28;20034;-93
2022/12/03 10:35:11;;;;;;;49.72;17.92;;;2.30;99.90;;;;;;5028087;28;20026;-92
2022/12/03 10:37:56;;;;;;;48.75;17.88;;;2.30;99.90;;;;;;5006890;28;20032;-93
2022/12/03 10:40:30;;;;;;;49.35;18.70;;;2.30;99.90;;;;;;5029925;28;20030;-90
2022/12/03 10:43:15;;;;;;;50.15;18.55;;;2.30;99.90;;;;;;5012170;28;20021;-92
2022/12/03 10:45:42;;;;;;;47.75;17.50;;;2.30;99.90;;;;;;5019576;28;20037;-92
2022/12/03 10:48:19;;;;;;;44.92;16.70;;;2.40;99.90;;;;;;5015765;28;20041;-92
2022/12/03 10:51:00;;;;;;;51.63;19.58;;;2.40;99.90;;;;;;5023229;28;20029;-91
2022/12/03 10:53:28;;;;;;;58.13;20.23;;;2.40;99.90;;;;;;5011045;28;20030;-93
2022/12/03 10:55:58;;;;;;;55.70;19.33;;;2.30;99.90;;;;;;5016487;28;20057;-92
2022/12/03 10:58:26;;;;;;;48.75;19.63;;;2.30;99.90;;;;;;5014247;28;20046;-92
2022/12/03 11:00:54;;;;;;;54.10;18.80;;;2.30;99.90;;;;;;5014593;28;20444;-93
2022/12/03 11:03:26;;;;;;;49.75;19.65;;;2.30;99.90;;;;;;5013882;28;20030;-91
2022/12/03 11:05:53;;;;;;;54.88;21.40;;;2.40;99.90;;;;;;5011421;28;20084;-93
2022/12/03 11:08:25;;;;;;;51.97;19.40;;;2.40;99.90;;;;;;5010434;28;20041;-92
2022/12/03 11:11:13;;;;;;;48.85;18.48;;;2.40;99.90;;;;;;5012682;28;20029;-92
2022/12/03 11:13:39;;;;;;;46.15;16.92;;;2.40;99.90;;;;;;5028695;28;20499;-92
2022/12/03 11:16:07;;;;;;;49.40;18.48;;;2.50;99.90;;;;;;5013924;28;20022;-92
2022/12/03 11:18:35;;;;;;;49.47;18.77;;;2.50;99.90;;;;;;5010571;28;20025;-91
2022/12/03 11:21:10;;;;;;;49.53;19.70;;;2.50;99.90;;;;;;5024877;28;20019;-92
2022/12/03 11:23:58;;;;;;;40.20;16.90;;;2.50;99.90;;;;;;5024708;28;20104;-92
2022/12/03 11:26:26;;;;;;;50.92;18.75;;;2.40;99.90;;;;;;4996914;28;20046;-92
2022/12/03 11:28:55;;;;;;;55.63;21.10;;;2.40;99.90;;;;;;5015044;28;20069;-92
2022/12/03 11:31:43;;;;;;;56.00;20.88;;;2.40;99.90;;;;;;5018401;28;20029;-92
2022/12/03 11:34:28;;;;;;;58.45;21.08;;;2.40;99.90;;;;;;5011923;28;20040;-91
2022/12/03 11:37:11;;;;;;;54.63;18.67;;;2.30;99.90;;;;;;5015862;28;20030;-92
2022/12/03 11:39:54;;;;;;;57.67;21.70;;;2.30;99.90;;;;;;5010074;28;20036;-91
2022/12/03 11:42:25;;;;;;;60.42;20.85;;;2.30;99.90;;;;;;5011517;28;20030;-89
2022/12/03 11:45:04;;;;;;;56.42;22.15;;;2.30;99.90;;;;;;5015607;28;20072;-89
2022/12/03 11:47:40;;;;;;;56.50;19.67;;;2.30;99.90;;;;;;5009397;28;20054;-90
2022/12/03 11:50:27;;;;;;;53.25;20.77;;;2.30;99.90;;;;;;5015364;28;20133;-91
2022/12/03 11:52:58;;;;;;;61.95;21.45;;;2.30;99.90;;;;;;5009283;28;20076;-91
2022/12/03 11:55:31;;;;;;;47.78;19.77;;;2.20;99.90;;;;;;5028593;28;20384;-89
2022/12/03 11:58:00;;;;;;;60.45;20.67;;;2.20;99.90;;;;;;5015384;28;20025;-91
2022/12/03 12:00:25;;;;;;;52.00;19.98;;;2.20;99.90;;;;;;5015417;28;20036;-90
2022/12/03 12:02:53;;;;;;;54.53;21.00;;;2.30;99.90;;;;;;5016055;28;20026;-90
2022/12/03 12:05:30;;;;;;;63.97;22.42;;;2.30;99.90;;;;;;5015788;28;20030;-89
2022/12/03 12:07:56;;;;;;;57.35;20.95;;;2.30;99.90;;;;;;5016967;28;20068;-89
2022/12/03 12:10:40;;;;;;;54.83;20.23;;;2.30;99.90;;;;;;5015260;28;20030;-90
2022/12/03 12:13:05;;;;;;;56.15;21.35;;;2.30;99.90;;;;;;5030726;28;20033;-91
2022/12/03 12:15:51;;;;;;;56.92;19.13;;;2.30;99.90;;;;;;5009410;28;20026;-90
2022/12/03 12:19:01;;;;;;;57.28;22.17;;;2.30;99.90;;;;;;4999719;28;20050;-90
2022/12/03 12:21:46;;;;;;;49.20;19.38;;;2.30;99.90;;;;;;4948705;28;20043;-90
2022/12/03 12:24:42;;;;;;;49.58;19.73;;;2.30;99.90;;;;;;5022180;28;20034;-91
2022/12/03 12:27:31;;;;;;;49.67;18.98;;;2.30;99.90;;;;;;5035540;28;20038;-92
2022/12/03 12:30:11;;;;;;;51.25;19.65;;;2.30;99.90;;;;;;5010557;28;20022;-92
2022/12/03 12:32:54;;;;;;;48.80;18.20;;;2.30;99.90;;;;;;5019258;28;20061;-91
2022/12/03 12:35:26;;;;;;;47.55;18.65;;;2.30;99.90;;;;;;5030942;28;20025;-90
2022/12/03 12:37:54;;;;;;;46.17;18.50;;;2.30;99.90;;;;;;5021550;28;20029;-91
2022/12/03 12:40:22;;;;;;;49.13;18.58;;;2.30;99.90;;;;;;5030501;28;20072;-91
2022/12/03 12:43:00;;;;;;;48.90;18.13;;;2.30;99.90;;;;;;5039730;28;20022;-92
2022/12/03 12:45:44;;;;;;;52.20;20.45;;;2.30;99.90;;;;;;5018613;28;20034;-91
2022/12/03 12:48:33;;;;;;;43.53;17.13;;;2.30;99.90;;;;;;5017511;28;20037;-92
2022/12/03 12:51:11;;;;;;;51.05;20.23;;;2.30;99.90;;;;;;5014849;28;20030;-91
2022/12/03 12:53:39;;;;;;;44.42;17.45;;;2.20;99.90;;;;;;5014510;28;20065;-92
2022/12/03 12:56:24;;;;;;;45.55;17.55;;;2.20;99.90;;;;;;5009006;28;20026;-91
2022/12/03 12:58:50;;;;;;;52.47;19.67;;;2.20;99.90;;;;;;5007922;28;20034;-91
2022/12/03 13:01:20;;;;;;;54.67;20.60;;;2.20;99.90;;;;;;5014380;28;20026;-92
2022/12/03 13:03:49;;;;;;;55.78;20.23;;;2.20;99.90;;;;;;5015340;28;20032;-91
2022/12/03 13:06:15;;;;;;;56.58;20.55;;;2.20;99.90;;;;;;5015830;28;20050;-92